Minto, North Dakota
Current Conditions -  °F | °C
As of 10:15 AM on Thursday 30 Oct 2014 (Local Time) from KGAF Reporting Station
Overcast Overcast  
Wind Chill: 25°   Ceiling: 1300
Heat Index: 36°   Visibility: 9mi
Dew Point: 32°   Wind: 18mph
Humidity: 87%   Direction: 350°N
Pressure: 30.27"   Gusts: 25mph
Location:  48.29°N, 97.37°W
Report Text: KGAF 301515Z AUTO 35016G22KT 9SM OVC013 02/00 A3027 RMK AO2
Loading
Personal Weather Stations






























Interactive Weather Map New forecast layout! Learn more

10-Day Weather Forecast

Advertisements
Track Severe Weather on mobile